createdAt,value
2018-11-14T00:00:13.903Z,2.80
2018-11-14T00:02:42.398Z,2.90
2018-11-14T00:05:10.865Z,3.12
2018-11-14T00:07:39.429Z,2.95
2018-11-14T00:10:08.914Z,2.95
2018-11-14T00:12:37.395Z,3.70
2018-11-14T00:15:08.128Z,3.10
2018-11-14T00:17:36.563Z,3.37
2018-11-14T00:20:06.734Z,3.00
2018-11-14T00:22:35.311Z,3.10
2018-11-14T00:25:04.002Z,2.25
2018-11-14T00:27:32.540Z,3.33
2018-11-14T00:30:01.136Z,2.80
2018-11-14T00:32:29.613Z,2.77
2018-11-14T00:34:58.677Z,3.40
2018-11-14T00:37:26.942Z,3.27
2018-11-14T00:39:55.422Z,2.90
2018-11-14T00:42:23.983Z,3.30
2018-11-14T00:44:52.450Z,2.72
2018-11-14T00:47:20.903Z,2.85
2018-11-14T00:49:49.408Z,2.80
2018-11-14T00:52:17.960Z,2.90
2018-11-14T00:54:46.488Z,3.22
2018-11-14T00:57:15.030Z,2.90
2018-11-14T00:59:43.627Z,3.15
2018-11-14T01:02:12.139Z,2.92
2018-11-14T01:04:41.249Z,2.80
2018-11-14T01:07:09.714Z,2.80
2018-11-14T01:09:38.265Z,2.83
2018-11-14T01:12:06.825Z,2.83
2018-11-14T01:14:36.314Z,2.72
2018-11-14T01:17:05.434Z,3.00
2018-11-14T01:19:34.800Z,3.20
2018-11-14T01:22:03.333Z,2.87
2018-11-14T01:24:32.189Z,2.75
2018-11-14T01:27:00.692Z,2.95
2018-11-14T01:29:29.329Z,2.70
2018-11-14T01:31:58.289Z,2.90
2018-11-14T01:34:26.831Z,2.67
2018-11-14T01:36:55.374Z,2.80
2018-11-14T01:39:23.834Z,2.80
2018-11-14T01:41:52.351Z,2.70
2018-11-14T01:44:20.900Z,2.75
2018-11-14T01:46:49.401Z,3.15
2018-11-14T01:49:17.878Z,3.25
2018-11-14T01:51:46.355Z,2.40
2018-11-14T01:54:14.821Z,2.90
2018-11-14T01:56:43.369Z,2.70
2018-11-14T01:59:11.977Z,3.00
2018-11-14T02:01:40.524Z,2.50
2018-11-14T02:04:09.017Z,2.87
2018-11-14T02:06:37.503Z,3.08
2018-11-14T02:09:07.618Z,2.60
2018-11-14T02:11:36.105Z,3.10
2018-11-14T02:14:04.973Z,2.90
2018-11-14T02:16:33.491Z,3.35
2018-11-14T02:19:02.084Z,2.77
2018-11-14T02:21:30.520Z,2.90
2018-11-14T02:23:59.054Z,2.65
2018-11-14T02:26:27.614Z,2.90
2018-11-14T02:28:56.089Z,3.05
2018-11-14T02:31:24.655Z,2.85
2018-11-14T02:33:53.178Z,3.30
2018-11-14T02:36:22.315Z,3.20
2018-11-14T02:38:50.759Z,3.30
2018-11-14T02:41:19.313Z,3.65
2018-11-14T02:43:48.415Z,3.08
2018-11-14T02:46:17.033Z,3.02
2018-11-14T02:48:45.530Z,3.40
2018-11-14T02:51:22.149Z,3.12
2018-11-14T02:53:50.611Z,2.75
2018-11-14T02:56:19.129Z,2.72
2018-11-14T02:58:47.643Z,3.20
2018-11-14T03:01:16.178Z,3.17
2018-11-14T03:03:44.725Z,2.70
2018-11-14T03:06:13.266Z,3.10
2018-11-14T03:08:41.849Z,3.00
2018-11-14T03:11:10.638Z,2.70
2018-11-14T03:13:39.380Z,3.00
2018-11-14T03:16:08.192Z,2.75
2018-11-14T03:18:36.601Z,2.77
2018-11-14T03:21:05.369Z,3.00
2018-11-14T03:23:33.838Z,5.45
2018-11-14T03:26:02.446Z,3.30
2018-11-14T03:28:31.001Z,3.08
2018-11-14T03:30:59.537Z,2.67
2018-11-14T03:33:28.017Z,3.55
2018-11-14T03:36:02.028Z,2.70
2018-11-14T03:38:30.512Z,2.87
2018-11-14T03:40:59.145Z,3.05
2018-11-14T03:43:27.613Z,2.87
2018-11-14T03:45:56.293Z,3.40
2018-11-14T03:48:24.753Z,3.40
2018-11-14T03:50:53.336Z,3.60
2018-11-14T03:53:21.933Z,3.02
2018-11-14T03:55:50.413Z,3.20
2018-11-14T03:58:19.199Z,3.05
2018-11-14T04:00:48.568Z,3.22
2018-11-14T04:03:17.073Z,2.98
2018-11-14T04:05:45.585Z,3.02
2018-11-14T04:08:14.069Z,3.62
2018-11-14T04:10:43.260Z,3.10
2018-11-14T04:13:12.758Z,3.70
2018-11-14T04:15:41.321Z,3.50
2018-11-14T04:18:09.798Z,2.98
2018-11-14T04:20:38.835Z,3.05
2018-11-14T04:23:08.238Z,3.37
2018-11-14T04:25:36.841Z,3.70
2018-11-14T04:28:05.530Z,3.22
2018-11-14T04:30:34.049Z,3.00
2018-11-14T04:33:02.589Z,3.10
2018-11-14T04:35:31.123Z,3.10
2018-11-14T04:37:59.607Z,3.33
2018-11-14T04:40:28.060Z,3.33
2018-11-14T04:42:56.610Z,2.80
2018-11-14T04:45:26.222Z,3.05
2018-11-14T04:47:54.820Z,3.52
2018-11-14T04:50:24.818Z,3.33
2018-11-14T04:52:53.592Z,3.80
2018-11-14T04:55:23.169Z,4.12
2018-11-14T04:57:51.766Z,2.83
2018-11-14T05:00:22.481Z,3.70
2018-11-14T05:02:51.536Z,3.58
2018-11-14T05:05:21.170Z,4.40
2018-11-14T05:07:49.611Z,3.95
2018-11-14T05:10:22.373Z,5.60
2018-11-14T05:12:51.358Z,5.80
2018-11-14T05:15:21.874Z,5.92
2018-11-14T05:17:51.011Z,6.62
2018-11-14T05:20:20.467Z,6.33
2018-11-14T05:22:49.430Z,7.33
2018-11-14T05:25:18.057Z,7.28
2018-11-14T05:27:46.601Z,7.00
2018-11-14T05:30:19.761Z,5.67
2018-11-14T05:32:49.344Z,4.95
2018-11-14T05:35:18.110Z,4.28
2018-11-14T05:37:47.729Z,5.20
2018-11-14T05:40:17.703Z,4.80
2018-11-14T05:42:47.012Z,4.12
2018-11-14T05:45:17.690Z,4.70
2018-11-14T05:47:46.276Z,4.20
2018-11-14T05:50:16.367Z,4.50
2018-11-14T05:52:45.020Z,4.42
2018-11-14T05:55:15.332Z,4.30
2018-11-14T05:57:44.563Z,4.62
2018-11-14T06:00:17.923Z,4.42
2018-11-14T06:02:47.273Z,4.95
2018-11-14T06:05:16.624Z,5.60
2018-11-14T06:07:45.354Z,4.90
2018-11-14T06:10:14.177Z,6.25
2018-11-14T06:12:43.195Z,6.08
2018-11-14T06:15:15.337Z,10.55
2018-11-14T06:17:44.873Z,4.50
2018-11-14T06:20:17.004Z,5.05
2018-11-14T06:22:46.728Z,5.50
2018-11-14T06:25:26.046Z,5.37
2018-11-14T06:27:56.055Z,4.83
2018-11-14T06:30:24.855Z,5.60
2018-11-14T06:32:53.964Z,5.40
2018-11-14T06:35:23.293Z,4.83
2018-11-14T06:37:53.381Z,6.08
2018-11-14T06:40:22.316Z,5.25
2018-11-14T06:42:51.084Z,6.40
2018-11-14T06:45:27.532Z,6.12
2018-11-14T06:47:57.286Z,6.90
2018-11-14T06:50:25.816Z,7.90
2018-11-14T06:52:55.861Z,7.62
2018-11-14T06:55:27.161Z,7.58
2018-11-14T06:57:56.438Z,7.58
2018-11-14T07:00:28.130Z,8.65
2018-11-14T07:02:57.377Z,6.20
2018-11-14T07:05:26.116Z,6.95
2018-11-14T07:07:54.733Z,6.10
2018-11-14T07:10:26.429Z,7.03
2018-11-14T07:12:59.212Z,6.62
2018-11-14T07:15:27.716Z,7.17
2018-11-14T07:17:56.231Z,7.53
2018-11-14T07:20:27.043Z,6.12
2018-11-14T07:22:55.453Z,7.50
2018-11-14T07:25:23.998Z,7.12
2018-11-14T07:27:52.479Z,5.80
2018-11-14T07:30:24.178Z,5.65
2018-11-14T07:32:54.243Z,6.80
2018-11-14T07:35:22.850Z,7.90
2018-11-14T07:38:40.441Z,5.87
2018-11-14T07:41:10.978Z,6.85
2018-11-14T07:43:40.315Z,6.25
2018-11-14T07:46:09.342Z,7.08
2018-11-14T07:48:38.404Z,6.03
2018-11-14T07:51:07.895Z,6.25
2018-11-14T07:53:36.434Z,4.30
2018-11-14T07:56:05.085Z,5.75
2018-11-14T07:58:33.591Z,4.35
2018-11-14T08:01:02.172Z,4.92
2018-11-14T08:03:31.672Z,6.08
2018-11-14T08:06:06.846Z,6.03
2018-11-14T08:08:35.919Z,5.35
2018-11-14T08:11:04.455Z,5.22
2018-11-14T08:13:34.309Z,6.30
2018-11-14T08:16:03.192Z,7.20
2018-11-14T08:18:31.864Z,6.45
2018-11-14T08:21:01.274Z,6.40
2018-11-14T08:23:29.777Z,6.35
2018-11-14T08:25:58.311Z,6.40
2018-11-14T08:28:26.876Z,7.05
2018-11-14T08:30:55.458Z,8.28
2018-11-14T08:33:23.943Z,8.95
2018-11-14T08:35:52.482Z,8.20
2018-11-14T08:38:20.994Z,7.62
2018-11-14T08:40:49.745Z,7.40
2018-11-14T08:43:18.220Z,8.73
2018-11-14T08:45:46.796Z,8.90
2018-11-14T08:48:15.281Z,8.68
2018-11-14T08:50:43.845Z,10.00
2018-11-14T08:53:13.615Z,8.75
2018-11-14T08:55:42.113Z,9.48
2018-11-14T08:58:11.973Z,10.80
2018-11-14T09:00:40.600Z,12.00
2018-11-14T09:03:10.615Z,11.18
2018-11-14T09:05:39.169Z,10.63
2018-11-14T09:08:07.736Z,11.73
2018-11-14T09:10:36.284Z,11.80
2018-11-14T09:13:04.936Z,11.57
2018-11-14T09:15:33.365Z,13.45
2018-11-14T09:18:01.971Z,12.30
2018-11-14T09:20:30.522Z,14.10
2018-11-14T09:22:59.121Z,12.40
2018-11-14T09:25:30.509Z,12.70
2018-11-14T09:27:59.996Z,12.43
2018-11-14T09:30:28.670Z,13.48
2018-11-14T09:32:57.398Z,12.00
2018-11-14T09:35:26.648Z,13.10
2018-11-14T09:37:56.273Z,13.28
2018-11-14T09:40:25.989Z,12.47
2018-11-14T09:42:54.520Z,14.47
2018-11-14T09:45:25.080Z,13.72
2018-11-14T09:47:53.667Z,15.10
2018-11-14T09:50:23.765Z,14.43
2018-11-14T09:52:53.733Z,16.67
2018-11-14T09:55:22.309Z,15.50
2018-11-14T09:57:50.862Z,16.45
2018-11-14T10:00:21.266Z,15.50
2018-11-14T10:02:51.287Z,17.35
2018-11-14T10:05:21.084Z,16.20
2018-11-14T10:07:49.658Z,17.30
2018-11-14T10:10:19.743Z,15.50
2018-11-14T10:12:49.249Z,16.90
2018-11-14T10:15:19.155Z,15.70
2018-11-14T10:17:49.862Z,17.00
2018-11-14T10:20:19.796Z,15.98
2018-11-14T10:22:54.823Z,17.32
2018-11-14T10:25:23.335Z,16.57
2018-11-14T10:27:51.817Z,16.00
2018-11-14T10:30:22.476Z,16.42
2018-11-14T10:32:51.651Z,15.48
2018-11-14T10:35:20.154Z,15.38
2018-11-14T10:37:48.735Z,16.05
2018-11-14T10:43:02.091Z,17.87
2018-11-14T10:45:30.751Z,16.37
2018-11-14T10:47:59.434Z,16.82
2018-11-14T10:50:28.603Z,15.60
2018-11-14T10:52:57.966Z,16.65
2018-11-14T10:55:26.565Z,16.25
2018-11-14T10:57:55.201Z,16.90
2018-11-14T11:00:31.005Z,15.78
2018-11-14T11:03:06.235Z,18.05
2018-11-14T11:05:43.992Z,18.62
2018-11-14T11:08:18.944Z,17.75
2018-11-14T11:11:53.989Z,17.07
2018-11-14T11:14:27.853Z,17.82
2018-11-14T11:17:01.786Z,17.60
2018-11-14T11:19:31.472Z,19.45
2018-11-14T11:22:00.153Z,17.92
2018-11-14T11:24:28.781Z,17.98
2018-11-14T11:26:57.324Z,15.80
2018-11-14T11:29:26.051Z,17.23
2018-11-14T11:31:54.630Z,22.82
2018-11-14T11:34:23.132Z,18.07
2018-11-14T11:36:51.647Z,19.02
2018-11-14T11:39:20.182Z,17.30
2018-11-14T11:41:48.690Z,18.48
2018-11-14T11:44:17.329Z,17.35
2018-11-14T11:46:45.915Z,18.30
2018-11-14T11:49:14.531Z,17.85
2018-11-14T11:51:43.126Z,16.02
2018-11-14T11:54:11.688Z,15.68
2018-11-14T11:56:40.285Z,15.98
2018-11-14T11:59:09.046Z,17.12
2018-11-14T12:01:38.061Z,17.10
2018-11-14T12:04:06.608Z,17.07
2018-11-14T12:07:01.985Z,16.10
2018-11-14T12:09:30.494Z,17.77
2018-11-14T12:11:59.049Z,18.17
2018-11-14T12:14:27.534Z,15.85
2018-11-14T12:16:56.064Z,18.00
2018-11-14T12:19:24.561Z,16.32
2018-11-14T12:21:53.203Z,14.75
2018-11-14T12:24:21.815Z,16.05
2018-11-14T12:26:50.340Z,14.30
2018-11-14T12:29:18.920Z,13.65
2018-11-14T12:31:47.535Z,13.28
2018-11-14T12:34:16.385Z,17.27
2018-11-14T12:36:45.053Z,14.18
2018-11-14T12:39:13.601Z,13.78
2018-11-14T12:41:42.278Z,14.50
2018-11-14T12:44:10.906Z,15.65
2018-11-14T12:46:39.402Z,15.38
2018-11-14T12:49:07.994Z,15.80
2018-11-14T12:51:36.648Z,15.78
2018-11-14T12:54:05.212Z,17.45
2018-11-14T12:56:33.849Z,17.65
2018-11-14T12:59:02.498Z,17.23
2018-11-14T13:01:31.047Z,16.55
2018-11-14T13:03:59.598Z,16.80
2018-11-14T13:06:28.201Z,16.25
2018-11-14T13:08:56.730Z,16.10
2018-11-14T13:11:25.329Z,16.50
2018-11-14T13:13:53.880Z,16.20
2018-11-14T13:16:22.658Z,17.15
2018-11-14T13:18:51.166Z,16.95
2018-11-14T13:21:19.780Z,16.37
2018-11-14T13:23:48.372Z,16.57
2018-11-14T13:26:16.964Z,14.63
2018-11-14T13:28:45.651Z,16.35
2018-11-14T13:31:14.092Z,16.17
2018-11-14T13:33:42.656Z,16.97
2018-11-14T13:36:11.206Z,15.45
2018-11-14T13:38:39.779Z,16.57
2018-11-14T13:41:08.360Z,16.85
2018-11-14T13:43:37.551Z,17.15
2018-11-14T13:46:06.144Z,16.80
2018-11-14T13:48:35.290Z,16.65
2018-11-14T13:51:05.319Z,17.25
2018-11-14T13:53:34.264Z,18.27
2018-11-14T13:56:03.250Z,16.80
2018-11-14T13:58:32.801Z,16.50
2018-11-14T14:01:01.617Z,15.00
2018-11-14T14:03:30.286Z,15.55
2018-11-14T14:05:59.136Z,14.63
2018-11-14T14:08:27.973Z,16.97
2018-11-14T14:10:56.575Z,15.25
2018-11-14T14:13:25.267Z,14.40
2018-11-14T14:15:53.968Z,15.10
2018-11-14T14:18:22.516Z,14.73
2018-11-14T14:20:51.054Z,15.15
2018-11-14T14:23:19.885Z,15.35
2018-11-14T14:25:48.585Z,16.42
2018-11-14T14:28:17.168Z,18.87
2018-11-14T14:30:45.868Z,17.12
2018-11-14T14:33:14.513Z,17.87
2018-11-14T14:35:43.073Z,16.45
2018-11-14T14:38:11.718Z,16.20
2018-11-14T14:40:42.279Z,18.48
2018-11-14T14:43:10.958Z,16.52
2018-11-14T14:45:39.541Z,17.73
2018-11-14T14:48:08.169Z,16.07
2018-11-14T14:50:36.869Z,17.35
2018-11-14T14:53:05.922Z,17.30
2018-11-14T14:55:34.529Z,17.65
2018-11-14T14:58:03.161Z,17.90
2018-11-14T15:00:31.836Z,15.68
2018-11-14T15:03:00.451Z,16.50
2018-11-14T15:05:29.119Z,17.60
2018-11-14T15:07:57.729Z,18.65
2018-11-14T15:10:26.248Z,17.07
2018-11-14T15:12:54.875Z,16.67
2018-11-14T15:15:23.556Z,17.45
2018-11-14T15:17:52.067Z,17.57
2018-11-14T15:20:22.860Z,17.35
2018-11-14T15:22:51.493Z,18.17
2018-11-14T15:25:21.439Z,18.00
2018-11-14T15:27:50.530Z,17.65
2018-11-14T15:30:21.666Z,17.23
2018-11-14T15:32:50.708Z,17.45
2018-11-14T15:35:19.428Z,18.30
2018-11-14T15:37:47.978Z,19.37
2018-11-14T15:40:18.335Z,18.62
2018-11-14T15:42:47.294Z,19.90
2018-11-14T15:45:18.580Z,19.50
2018-11-14T15:47:47.279Z,17.75
2018-11-14T15:50:17.437Z,17.25
2018-11-14T15:52:46.979Z,18.40
2018-11-14T15:55:16.746Z,18.52
2018-11-14T15:57:45.543Z,19.80
2018-11-14T16:00:17.147Z,17.35
2018-11-14T16:02:45.709Z,18.75
2018-11-14T16:05:20.426Z,18.07
2018-11-14T16:07:50.355Z,17.70
2018-11-14T16:10:20.263Z,17.95
2018-11-14T16:12:48.797Z,17.92
2018-11-14T16:15:20.539Z,18.05
2018-11-14T16:17:49.117Z,17.07
2018-11-14T16:20:19.263Z,15.70
2018-11-14T16:22:47.837Z,17.17
2018-11-14T16:25:17.600Z,16.75
2018-11-14T16:27:47.141Z,16.60
2018-11-14T16:30:17.937Z,17.25
2018-11-14T16:32:47.524Z,17.07
2018-11-14T16:35:16.010Z,17.65
2018-11-14T16:37:44.669Z,16.10
2018-11-14T16:40:17.358Z,16.82
2018-11-14T16:42:45.931Z,18.05
2018-11-14T16:45:14.917Z,16.42
2018-11-14T16:47:43.643Z,16.60
2018-11-14T16:50:13.621Z,16.25
2018-11-14T16:52:42.209Z,17.10
2018-11-14T16:55:12.056Z,17.60
2018-11-14T16:57:41.458Z,17.95
2018-11-14T17:00:13.003Z,16.62
2018-11-14T17:02:42.151Z,17.20
2018-11-14T17:05:11.100Z,15.05
2018-11-14T17:07:39.864Z,17.48
2018-11-14T17:10:12.331Z,16.70
2018-11-14T17:12:41.329Z,18.20
2018-11-14T17:15:11.708Z,17.73
2018-11-14T17:17:40.317Z,18.55
2018-11-14T17:20:09.633Z,19.17
2018-11-14T17:22:38.200Z,18.62
2018-11-14T17:25:07.349Z,20.68
2018-11-14T17:27:36.371Z,26.70
2018-11-14T17:30:07.312Z,22.85
2018-11-14T17:32:36.067Z,21.12
2018-11-14T17:35:05.848Z,21.50
2018-11-14T17:37:34.319Z,17.95
2018-11-14T17:40:02.850Z,19.75
2018-11-14T17:42:31.403Z,18.73
2018-11-14T17:45:00.367Z,16.75
2018-11-14T17:47:30.606Z,16.62
2018-11-14T17:50:00.271Z,15.20
2018-11-14T17:52:29.852Z,13.90
2018-11-14T17:54:58.989Z,15.78
2018-11-14T17:57:27.941Z,14.53
2018-11-14T17:59:56.399Z,14.90
2018-11-14T18:02:25.114Z,15.30
2018-11-14T18:04:53.645Z,29.40
2018-11-14T18:07:22.200Z,14.58
2018-11-14T18:09:50.682Z,14.45
2018-11-14T18:12:19.185Z,13.83
2018-11-14T18:14:48.755Z,13.35
2018-11-14T18:17:17.264Z,13.50
2018-11-14T18:19:46.422Z,12.03
2018-11-14T18:22:14.932Z,10.72
2018-11-14T18:24:43.464Z,12.43
2018-11-14T18:27:12.128Z,11.75
2018-11-14T18:29:40.639Z,12.07
2018-11-14T18:32:10.110Z,11.30
2018-11-14T18:34:38.590Z,12.75
2018-11-14T18:37:07.231Z,12.35
2018-11-14T18:39:35.801Z,12.55
2018-11-14T18:42:04.439Z,13.10
2018-11-14T18:44:33.288Z,12.13
2018-11-14T18:47:02.543Z,12.33
2018-11-14T18:49:30.978Z,13.15
2018-11-14T18:51:59.609Z,13.30
2018-11-14T18:54:28.882Z,13.30
2018-11-14T18:56:58.229Z,13.40
2018-11-14T18:59:27.717Z,12.75
2018-11-14T19:01:56.196Z,14.60
2018-11-14T19:04:24.798Z,14.53
2018-11-14T19:06:53.436Z,14.18
2018-11-14T19:09:22.673Z,17.92
2018-11-14T19:11:51.295Z,14.78
2018-11-14T19:14:19.950Z,15.15
2018-11-14T19:16:48.455Z,14.55
2018-11-14T19:19:17.059Z,14.55
2018-11-14T19:21:45.575Z,14.78
2018-11-14T19:24:14.278Z,14.18
2018-11-14T19:26:42.820Z,15.28
2018-11-14T19:29:11.266Z,15.85
2018-11-14T19:31:39.828Z,15.50
2018-11-14T19:34:08.285Z,14.75
2018-11-14T19:36:36.740Z,15.13
2018-11-14T19:39:08.354Z,15.90
2018-11-14T19:41:36.956Z,15.95
2018-11-14T19:44:05.915Z,14.70
2018-11-14T19:46:34.578Z,16.93
2018-11-14T19:49:03.128Z,15.40
2018-11-14T19:51:31.927Z,15.50
2018-11-14T19:54:00.624Z,15.48
2018-11-14T19:56:29.558Z,14.95
2018-11-14T19:58:58.343Z,15.25
2018-11-14T20:01:26.954Z,15.63
2018-11-14T20:03:55.792Z,16.42
2018-11-14T20:06:24.675Z,16.40
2018-11-14T20:08:53.412Z,15.85
2018-11-14T20:11:21.981Z,17.20
2018-11-14T20:13:50.738Z,17.35
2018-11-14T20:16:19.398Z,17.48
2018-11-14T20:18:48.094Z,17.45
2018-11-14T20:21:16.640Z,16.80
2018-11-14T20:23:45.358Z,17.10
2018-11-14T20:26:14.118Z,17.15
2018-11-14T20:28:42.837Z,17.30
2018-11-14T20:31:11.590Z,17.30
2018-11-14T20:33:40.397Z,17.05
2018-11-14T20:36:09.050Z,17.75
2018-11-14T20:38:37.918Z,16.85
2018-11-14T20:41:07.280Z,18.57
2018-11-14T20:43:36.070Z,17.23
2018-11-14T20:46:04.631Z,19.35
2018-11-14T20:48:33.447Z,18.20
2018-11-14T20:51:06.983Z,19.00
2018-11-14T20:53:35.689Z,17.10
2018-11-14T20:56:04.284Z,17.95
2018-11-14T20:58:33.098Z,18.95
2018-11-14T21:01:01.850Z,19.62
2018-11-14T21:03:30.394Z,18.25
2018-11-14T21:05:59.228Z,18.42
2018-11-14T21:08:27.870Z,18.98
2018-11-14T21:10:56.582Z,19.62
2018-11-14T21:13:25.284Z,19.37
2018-11-14T21:15:57.638Z,18.90
2018-11-14T21:18:27.129Z,19.57
2018-11-14T21:20:56.991Z,20.10
2018-11-14T21:23:26.523Z,19.55
2018-11-14T21:25:55.777Z,20.55
2018-11-14T21:28:25.271Z,19.00
2018-11-14T21:30:55.177Z,19.40
2018-11-14T21:33:24.374Z,20.57
2018-11-14T21:35:54.112Z,18.55
2018-11-14T21:38:24.209Z,20.52
2018-11-14T21:40:53.507Z,20.55
2018-11-14T21:43:22.677Z,20.80
2018-11-14T21:45:51.753Z,20.12
2018-11-14T21:48:21.663Z,19.15
2018-11-14T21:50:50.892Z,20.57
2018-11-14T21:53:20.236Z,19.55
2018-11-14T21:55:50.064Z,18.48
2018-11-14T21:58:19.638Z,20.00
2018-11-14T22:00:49.136Z,20.65
2018-11-14T22:03:19.064Z,19.30
2018-11-14T22:05:48.204Z,20.50
2018-11-14T22:08:17.340Z,19.10
2018-11-14T22:10:46.637Z,19.75
2018-11-14T22:13:15.824Z,20.23
2018-11-14T22:15:45.250Z,18.55
2018-11-14T22:18:14.575Z,18.37
2018-11-14T22:20:43.823Z,19.60
2018-11-14T22:23:13.397Z,19.95
2018-11-14T22:25:42.712Z,19.40
2018-11-14T22:28:12.569Z,18.73
2018-11-14T22:30:41.896Z,18.17
2018-11-14T22:33:11.549Z,18.45
2018-11-14T22:35:40.913Z,20.15
2018-11-14T22:59:00.807Z,20.32
2018-11-14T23:01:29.650Z,19.87
2018-11-14T23:03:58.545Z,19.75
2018-11-14T23:06:27.505Z,20.90
2018-11-14T23:08:56.575Z,21.05
2018-11-14T23:11:25.623Z,21.27
2018-11-14T23:13:55.156Z,21.40
2018-11-14T23:16:24.308Z,20.90
2018-11-14T23:18:53.354Z,20.68
2018-11-14T23:21:21.915Z,20.95
2018-11-14T23:23:50.748Z,20.48
2018-11-14T23:26:19.764Z,19.57
2018-11-14T23:28:48.755Z,19.73
2018-11-14T23:31:17.795Z,22.07
2018-11-14T23:33:46.789Z,21.10
2018-11-14T23:36:15.266Z,18.23
2018-11-14T23:38:43.849Z,20.75
2018-11-14T23:41:12.748Z,19.02
2018-11-14T23:43:41.641Z,19.85
2018-11-14T23:46:10.446Z,19.80
2018-11-14T23:48:39.947Z,19.73
2018-11-14T23:51:09.167Z,20.57
2018-11-14T23:53:38.771Z,19.92
2018-11-14T23:56:07.767Z,22.20
2018-11-14T23:58:36.661Z,21.60
